Data for 05/26/2006

Time Sea-Level Adjusted Pressure Absolute Pressure Temperature Relative Humidity Dew Point   
(mb) (inHg) (mb) (inHg) (C) (F) (%) (C) (F)
00:05 1007 29.74 836 24.69 18.6 65.5 24 -2.4 27.7
00:10 1007 29.74 836 24.69 18.5 65.4 24 -2 28.3
00:15 1007 29.74 836 24.69 18.5 65.2 25 -1.8 28.7
00:20 1007 29.74 836 24.69 18.2 64.8 25 -1.8 28.8
00:25 1007 29.74 836 24.69 18.1 64.6 26 -1.7 28.9
00:30 1007 29.74 836 24.69 18 64.4 25 -2 28.4
00:35 1007 29.74 836 24.69 18.2 64.8 25 -2.2 28
00:40 1007 29.74 836 24.69 18.1 64.6 25 -2.1 28.3
00:45 1007 29.74 836 24.69 17.7 63.8 27 -1.7 29
00:50 1007 29.74 836 24.69 16.7 62 36 1.5 34.7
00:55 1007 29.74 836 24.69 15.3 59.6 45 3.7 38.6
01:00 1007 29.74 836 24.69 14.6 58.3 43 2.3 36.2
01:05 1007 29.74 836 24.69 14.5 58.1 48 3.7 38.7
01:10 1007 29.74 836 24.69 14.1 57.5 51 4.2 39.5
01:15 1007 29.74 836 24.69 14 57.1 51 4.1 39.4
01:20 1007 29.74 836 24.69 13.8 56.9 53 4.4 40
01:25 1007 29.74 836 24.69 13.8 56.9 52 4.3 39.7
01:30 1007 29.74 836 24.69 13.8 56.8 53 4.4 39.9
01:35 1007 29.74 836 24.69 13.8 56.9 53 4.4 40
01:40 1007 29.74 836 24.69 13.9 57.1 54 4.7 40.5
01:45 1007 29.74 837 24.72 13.6 56.5 57 5.2 41.4
01:50 1007 29.74 837 24.72 12.9 55.2 59 5.1 41.3
01:55 1007 29.74 837 24.72 12.6 54.6 60 5 41
02:00 1007 29.74 837 24.72 12.5 54.5 60 4.9 40.9
02:05 1007 29.74 837 24.72 12.6 54.6 60 5.1 41.2
02:10 1007 29.74 837 24.72 12.6 54.8 60 5.3 41.5
02:15 1007 29.74 836 24.69 12.8 55 60 5.3 41.5
02:20 1007 29.74 836 24.69 12.8 55 60 5.4 41.7
02:25 1007 29.74 836 24.69 12.8 55.1 61 5.5 42
02:30 1007 29.74 836 24.69 12.8 55 61 5.5 42
02:35 1007 29.74 836 24.69 12.7 54.8 62 5.6 42.1
02:40 1007 29.74 836 24.69 12.9 55.1 60 5.4 41.6
02:45 1007 29.74 836 24.69 13 55.3 61 5.6 42.1
02:50 1007 29.74 836 24.69 13 55.3 60 5.5 41.9
02:55 1007 29.74 836 24.69 13.1 55.5 60 5.5 41.9
03:00 1007 29.74 836 24.69 13 55.5 60 5.6 42
03:05 1007 29.74 836 24.69 13.2 55.8 60 5.6 42
03:10 1007 29.74 836 24.69 13.2 55.8 59 5.5 41.8
03:15 1007 29.74 836 24.69 13.3 56 59 5.6 42.1
03:20 1007 29.74 836 24.69 13.3 56 60 5.7 42.3
03:25 1007 29.74 836 24.69 13.2 55.7 60 5.7 42.3
03:30 1007 29.74 836 24.69 13 55.4 62 6.1 42.9
03:35 1007 29.74 836 24.69 12.7 54.8 62 5.7 42.3
03:40 1007 29.74 836 24.69 12.9 55.2 61 5.6 42.2
03:45 1007 29.74 836 24.69 13.1 55.6 61 5.8 42.5
03:50 1007 29.74 836 24.69 13.1 55.6 61 5.9 42.6
03:55 1007 29.74 836 24.69 13 55.3 62 5.8 42.5
04:00 1007 29.74 836 24.69 13.1 55.5 61 5.9 42.6
04:05 1007 29.74 836 24.69 13 55.5 61 5.6 42.1
04:10 1007 29.74 836 24.69 13.1 55.5 60 5.5 41.9
04:15 1007 29.74 836 24.69 13.1 55.6 60 5.5 42
04:20 1007 29.74 836 24.69 13.2 55.7 60 5.7 42.2
04:25 1007 29.74 836 24.69 13.2 55.7 61 6 42.7
04:30 1007 29.74 836 24.69 13 55.3 62 5.9 42.6
04:35 1007 29.74 836 24.69 12.8 55 63 6 42.8
04:40 1007 29.74 837 24.72 12.5 54.6 64 5.9 42.6
04:45 1008 29.77 837 24.72 12.3 54.1 66 6.1 42.9
04:50 1008 29.77 837 24.72 12 53.6 66 6 42.8
04:55 1008 29.77 837 24.72 11.8 53.3 67 6 42.9
05:00 1008 29.77 837 24.72 11.5 52.8 69 6 42.8
05:05 1008 29.77 837 24.72 11.4 52.4 69 6 42.7
05:10 1008 29.77 837 24.72 11.2 52.2 70 6 42.8
05:15 1008 29.77 837 24.72 11.1 52.1 71 6 42.8
05:20 1008 29.77 837 24.72 11.1 51.9 71 6 42.8
05:25 1008 29.77 837 24.72 11 51.9 71 6.1 42.9
05:30 1008 29.77 837 24.72 10.9 51.6 73 6.2 43.1
05:35 1008 29.77 837 24.72 10.8 51.4 73 6.3 43.3
05:40 1008 29.77 837 24.72 10.8 51.4 74 6.3 43.4
05:45 1008 29.77 837 24.72 10.5 50.8 77 6.6 43.9
05:50 1008 29.77 837 24.72 10.3 50.5 77 6.5 43.6
05:55 1008 29.77 838 24.75 10.2 50.3 77 6.4 43.5
06:00 1008 29.77 838 24.75 10.1 50.2 77 6.3 43.4
06:05 1008 29.77 838 24.75 10.1 50.2 78 6.4 43.5
06:10 1008 29.77 838 24.75 10.2 50.3 77 6.4 43.5
06:15 1009 29.8 838 24.75 10.1 50.2 78 6.4 43.5
06:20 1009 29.8 838 24.75 10 50.1 78 6.5 43.6
06:25 1009 29.8 838 24.75 10 49.9 78 6.3 43.3
06:30 1009 29.8 838 24.75 9.9 49.8 78 6.3 43.3
06:35 1009 29.8 838 24.75 10 50 76 6.1 42.9
06:40 1009 29.8 838 24.75 10.1 50.2 75 6 42.8
06:45 1009 29.8 838 24.75 10.2 50.4 76 6.2 43.2
06:50 1009 29.8 838 24.75 10.2 50.4 75 6 42.8
06:55 1009 29.8 838 24.75 10.4 50.8 74 5.9 42.7
07:00 1009 29.8 838 24.75 10.5 50.9 76 6.4 43.6
07:05 1009 29.8 838 24.75 10.1 50.1 76 5.9 42.7
07:10 1009 29.8 838 24.75 10.1 50.1 75 5.9 42.6
07:15 1009 29.8 838 24.75 10.3 50.5 74 5.9 42.6
07:20 1009 29.8 838 24.75 10.6 51.1 73 5.9 42.6
07:25 1009 29.8 838 24.75 10.4 50.7 72 5.6 42.1
07:30 1009 29.8 839 24.78 10.2 50.3 72 5.5 41.9
07:35 1009 29.8 838 24.75 9.9 49.8 73 5.3 41.5
07:40 1009 29.8 838 24.75 9.8 49.7 73 5.2 41.4
07:45 1009 29.8 838 24.75 9.8 49.6 73 5.2 41.4
07:50 1009 29.8 838 24.75 9.9 49.8 73 5.3 41.6
07:55 1009 29.8 838 24.75 10.2 50.4 72 5.5 41.8
08:00 1009 29.8 838 24.75 10.5 50.9 70 5.2 41.4
08:05 1009 29.8 838 24.75 10.9 51.5 69 5.5 41.9
08:10 1009 29.8 838 24.75 10.8 51.4 70 5.5 41.9
08:15 1009 29.8 838 24.75 10.9 51.6 68 5.3 41.6
08:20 1009 29.8 838 24.75 11.4 52.5 67 5.5 41.8
08:25 1009 29.8 838 24.75 11.3 52.4 68 5.7 42.3
08:30 1009 29.8 838 24.75 11.2 52.1 70 5.9 42.6
08:35 1009 29.8 838 24.75 10.7 51.3 69 5.4 41.7
08:40 1009 29.8 838 24.75 10.6 51.1 69 5.3 41.5
08:45 1009 29.8 838 24.75 10.8 51.4 69 5.4 41.8
08:50 1009 29.8 838 24.75 11.2 52.1 67 5.4 41.7
08:55 1009 29.8 838 24.75 11 51.8 69 5.5 41.8
09:00 1009 29.8 838 24.75 11.7 53 66 5.5 41.9
09:05 1009 29.8 838 24.75 11.6 52.9 66 5.5 41.9
09:10 1009 29.8 838 24.75 11.7 53 64 5.1 41.2
09:15 1009 29.8 838 24.75 12.3 54.1 62 5.2 41.4
09:20 1009 29.8 838 24.75 12.3 54.2 62 5.2 41.4
09:25 1009 29.8 838 24.75 12.1 53.9 64 5.6 42.1
09:30 1009 29.8 838 24.75 12.2 54 63 5.5 41.9
09:35 1009 29.8 838 24.75 12.9 55.3 61 5.7 42.3
09:40 1009 29.8 838 24.75 12.2 53.9 63 5.5 41.9
09:45 1009 29.8 838 24.75 11.9 53.4 65 5.5 41.9
09:50 1009 29.8 838 24.75 12.3 54.2 61 5 41
09:55 1009 29.8 838 24.75 12.8 55 61 5.4 41.8
10:00 1009 29.8 838 24.75 12.4 54.4 62 5.4 41.8
10:05 1009 29.8 838 24.75 12.7 54.9 59 5.1 41.2
10:10 1009 29.8 838 24.75 13.3 55.9 57 5.1 41.2
10:15 1009 29.8 838 24.75 12.9 55.2 61 5.6 42
10:20 1009 29.8 838 24.75 12.9 55.1 61 5.5 41.9
10:25 1009 29.8 838 24.75 12.9 55.1 61 5.5 41.8
10:30 1009 29.8 838 24.75 12.5 54.5 62 5.5 41.8
10:35 1009 29.8 838 24.75 12.5 54.4 62 5.5 41.8
10:40 1008 29.77 838 24.75 12.4 54.3 61 5.2 41.4
10:45 1008 29.77 838 24.75 12.6 54.6 61 5.4 41.7
10:50 1008 29.77 838 24.75 12.6 54.6 62 5.5 41.9
10:55 1008 29.77 838 24.75 12.2 53.9 63 5.4 41.8
11:00 1008 29.77 838 24.75 12 53.7 63 5.3 41.5
11:05 1008 29.77 838 24.75 12.6 54.6 60 5.1 41.1
11:10 1008 29.77 838 24.75 12.8 55 62 5.6 42.2
11:15 1008 29.77 838 24.75 13.2 55.7 60 5.6 42.1
11:20 1008 29.77 837 24.72 13.2 55.8 58 5.3 41.5
11:25 1008 29.77 837 24.72 13.1 55.6 61 5.8 42.5
11:30 1008 29.77 837 24.72 13.1 55.5 59 5.3 41.5
11:35 1008 29.77 837 24.72 13.1 55.5 59 5.3 41.5
11:40 1008 29.77 837 24.72 12.9 55.1 59 5.2 41.3
11:45 1008 29.77 837 24.72 12.7 54.9 61 5.4 41.8
11:50 1008 29.77 838 24.75 12.8 55 61 5.4 41.7
11:55 1008 29.77 837 24.72 12.9 55.2 61 5.7 42.2
12:00 1008 29.77 837 24.72 12.8 55.1 61 5.6 42
12:05 1008 29.77 838 24.75 12.7 54.8 63 5.9 42.5
12:10 1008 29.77 838 24.75 12.8 55 62 5.8 42.5
12:15 1008 29.77 837 24.72 12.6 54.6 64 6 42.8
12:20 1008 29.77 837 24.72 12.3 54.1 68 6.5 43.7
12:25 1008 29.77 838 24.75 12.3 54.1 67 6.4 43.6
12:30 1008 29.77 838 24.75 12.2 54 67 6.4 43.5
12:35 1008 29.77 838 24.75 12.1 53.8 68 6.4 43.6
12:40 1008 29.77 837 24.72 11.6 52.8 72 6.8 44.2
12:45 1008 29.77 838 24.75 11.3 52.3 76 7.2 44.9
12:50 1008 29.77 838 24.75 11.2 52.2 74 6.8 44.3
12:55 1008 29.77 837 24.72 11.1 52 76 7 44.6
13:00 1008 29.77 837 24.72 11 51.7 77 7.2 44.9
13:05 1008 29.77 837 24.72 10.9 51.6 78 7.3 45.1
13:10 1008 29.77 837 24.72 10.7 51.2 79 7.2 44.9
13:15 1008 29.77 838 24.75 10.6 51 77 6.8 44.2
13:20 1008 29.77 837 24.72 10.6 51 76 6.6 43.9
13:25 1008 29.77 837 24.72 10.5 50.9 77 6.6 43.9
13:30 1008 29.77 837 24.72 10.4 50.8 78 6.8 44.2
13:35 1008 29.77 837 24.72 10.3 50.5 79 6.7 44.1
13:40 1008 29.77 837 24.72 10.1 50.2 78 6.6 43.8
13:45 1008 29.77 837 24.72 10 50 80 6.8 44.2
13:50 1008 29.77 838 24.75 10 50 80 6.7 44.1
13:55 1008 29.77 837 24.72 9.9 49.9 81 6.8 44.2
14:00 1008 29.77 838 24.75 10 50 79 6.6 43.9
14:05 1008 29.77 838 24.75 10 49.9 81 6.9 44.3
14:10 1008 29.77 838 24.75 10.2 50.4 80 6.9 44.3
14:15 1008 29.77 838 24.75 10.2 50.3 83 7.4 45.2
14:20 1008 29.77 838 24.75 10.3 50.6 84 7.7 45.8
14:25 1008 29.77 838 24.75 10.1 50.2 84 7.6 45.7
14:30 1008 29.77 838 24.75 9.7 49.5 84 7.1 44.8
14:35 1008 29.77 838 24.75 9.6 49.4 85 7.2 44.9
14:40 1009 29.8 838 24.75 9.7 49.4 85 7.3 45.1
14:45 1009 29.8 838 24.75 9.8 49.6 87 7.6 45.7
14:50 1008 29.77 838 24.75 9.7 49.4 86 7.5 45.5
14:55 1009 29.8 838 24.75 9.7 49.4 86 7.4 45.3
15:00 1008 29.77 838 24.75 9.4 48.9 86 7.2 45
15:05 1008 29.77 838 24.75 9.1 48.4 87 7.1 44.7
15:10 1008 29.77 838 24.75 9.1 48.5 87 7.2 44.9
15:15 1008 29.77 838 24.75 9.4 48.8 87 7.4 45.3
15:20 1008 29.77 838 24.75 9.6 49.2 85 7.2 44.9
15:25 1008 29.77 838 24.75 9.6 49.3 85 7.2 45
15:30 1008 29.77 838 24.75 9.8 49.6 85 7.4 45.4
15:35 1008 29.77 838 24.75 9.8 49.7 86 7.6 45.7
15:40 1008 29.77 838 24.75 9.9 49.7 86 7.6 45.7
15:45 1008 29.77 838 24.75 9.6 49.3 85 7.3 45.1
15:50 1008 29.77 838 24.75 9.7 49.5 86 7.4 45.4
15:55 1008 29.77 838 24.75 9.9 49.8 84 7.4 45.3
16:00 1008 29.77 838 24.75 9.9 49.9 85 7.5 45.5
16:05 1008 29.77 838 24.75 10 50 86 7.8 46.1
16:10 1008 29.77 838 24.75 10.1 50.2 83 7.3 45.2
16:15 1008 29.77 838 24.75 10.2 50.4 83 7.5 45.5
16:20 1008 29.77 838 24.75 10.2 50.4 83 7.4 45.4
16:25 1008 29.77 838 24.75 10.1 50.2 83 7.4 45.4
16:30 1008 29.77 837 24.72 10 50.1 83 7.3 45.2
16:35 1008 29.77 837 24.72 9.2 48.6 85 6.9 44.5
16:40 1008 29.77 838 24.75 8.4 47 88 6.4 43.6
16:45 1008 29.77 838 24.75 8 46.4 89 6.3 43.3
16:50 1008 29.77 838 24.75 7.9 46.3 89 6.2 43.2
16:55 1008 29.77 838 24.75 7.8 46.1 89 6.1 43
17:00 1009 29.8 838 24.75 7.7 45.8 89 6.1 42.9
17:05 1008 29.77 838 24.75 7.7 45.9 91 6.3 43.4
17:10 1009 29.8 838 24.75 7.8 46 89 6 42.9
17:15 1009 29.8 838 24.75 7.8 46 88 6 42.7
17:20 1009 29.8 838 24.75 8 46.4 90 6.4 43.5
17:25 1009 29.8 838 24.75 8.1 46.5 89 6.3 43.4
17:30 1009 29.8 838 24.75 8 46.4 88 6.1 43
17:35 1009 29.8 838 24.75 8.1 46.5 87 6.1 43
17:40 1009 29.8 838 24.75 8.2 46.7 88 6.3 43.3
17:45 1009 29.8 838 24.75 8.3 46.9 88 6.4 43.5
17:50 1009 29.8 838 24.75 8.4 47 87 6.3 43.3
17:55 1009 29.8 838 24.75 8.4 47.2 87 6.5 43.6
18:00 1009 29.8 838 24.75 8.4 47.2 87 6.4 43.5
18:05 1009 29.8 838 24.75 8.4 47.1 87 6.3 43.4
18:10 1008 29.77 838 24.75 8.5 47.3 87 6.5 43.7
18:15 1008 29.77 838 24.75 8.4 47.1 85 6.1 42.9
18:20 1008 29.77 838 24.75 8.3 47 85 6 42.8
18:25 1008 29.77 838 24.75 8.3 46.9 86 6.1 43
18:30 1008 29.77 838 24.75 8.4 47.1 85 6.1 43
18:35 1008 29.77 838 24.75 8.5 47.3 85 6.1 43
18:40 1008 29.77 838 24.75 8.4 47.2 86 6.2 43.2
18:45 1008 29.77 838 24.75 8.4 47 86 6.1 43
18:50 1008 29.77 838 24.75 8.2 46.7 86 6 42.8
18:55 1008 29.77 837 24.72 8.3 47 87 6.3 43.3
19:00 1008 29.77 838 24.75 8.3 46.9 85 6 42.7
19:05 1008 29.77 838 24.75 8 46.4 87 6 42.9
19:10 1008 29.77 838 24.75 7.8 46.1 89 6.1 43
19:15 1009 29.8 838 24.75 8 46.3 86 5.7 42.3
19:20 1009 29.8 838 24.75 7.9 46.2 87 6 42.7
19:25 1008 29.77 838 24.75 7.9 46.2 87 5.9 42.6
19:30 1008 29.77 837 24.72 7.9 46.1 87 5.9 42.6
19:35 1008 29.77 837 24.72 7.8 46 90 6.2 43.1
19:40 1008 29.77 838 24.75 7.6 45.7 90 6.2 43.1
19:45 1008 29.77 838 24.75 7.7 45.8 91 6.3 43.3
19:50 1008 29.77 838 24.75 7.8 46 90 6.2 43.2
19:55 1008 29.77 838 24.75 7.8 46 90 6.2 43.2
20:00 1008 29.77 837 24.72 7.5 45.5 91 6.2 43.2
20:05 1008 29.77 837 24.72 7.4 45.4 93 6.3 43.3
20:10 1008 29.77 837 24.72 7.5 45.5 91 6.2 43.1
20:15 1008 29.77 837 24.72 7.6 45.7 91 6.2 43.1
20:20 1008 29.77 837 24.72 7.8 46 88 6 42.8
20:25 1008 29.77 837 24.72 7.8 46.1 90 6.2 43.2
20:30 1008 29.77 837 24.72 7.9 46.3 89 6.3 43.3
20:35 1008 29.77 837 24.72 7.9 46.2 90 6.3 43.4
20:40 1008 29.77 838 24.75 7.8 46.1 91 6.4 43.5
20:45 1008 29.77 838 24.75 7.8 46 91 6.4 43.6
20:50 1008 29.77 838 24.75 7.8 46 89 6 42.8
20:55 1008 29.77 838 24.75 7.7 45.9 88 5.9 42.5
21:00 1008 29.77 838 24.75 7.8 46 89 6.1 43
21:05 1009 29.8 838 24.75 8 46.5 82 5.1 41.2
21:10 1008 29.77 837 24.72 8.1 46.7 85 5.8 42.4
21:15 1008 29.77 837 24.72 7.8 46.1 86 5.6 42.2
21:20 1008 29.77 837 24.72 7.6 45.8 90 6.1 43
21:25 1008 29.77 837 24.72 7.6 45.6 88 5.8 42.4
21:30 1007 29.74 837 24.72 7.6 45.8 85 5.2 41.4
21:35 1008 29.77 837 24.72 8.1 46.6 73 3.6 38.5
21:40 1008 29.77 837 24.72 9.1 48.4 70 3.9 39.1
21:45 1008 29.77 837 24.72 9.3 48.8 62 2.6 36.6
21:50 1007 29.74 837 24.72 10.1 50.1 62 3.2 37.7
21:55 1007 29.74 837 24.72 9.9 49.8 65 3.7 38.7
22:00 1007 29.74 837 24.72 9.6 49.4 64 3.3 37.9
22:05 1007 29.74 837 24.72 9.6 49.2 64 3.2 37.8
22:10 1007 29.74 837 24.72 9.6 49.4 65 3.5 38.3
22:15 1007 29.74 837 24.72 9.7 49.4 66 3.6 38.5
22:20 1007 29.74 837 24.72 9.6 49.2 66 3.6 38.5
22:25 1007 29.74 837 24.72 9.5 49.2 66 3.6 38.4
22:30 1007 29.74 836 24.69 9.6 49.2 63 2.9 37.2
22:35 1007 29.74 836 24.69 9.7 49.4 66 3.6 38.6
22:40 1007 29.74 837 24.72 9.5 49.1 67 3.8 38.9
22:45 1008 29.77 837 24.72 9.4 49 65 3.3 37.9
22:50 1008 29.77 837 24.72 9.6 49.3 64 3.2 37.8
22:55 1008 29.77 837 24.72 9.9 49.8 64 3.4 38.2
23:00 1008 29.77 837 24.72 9.8 49.6 70 4.7 40.5
23:05 1008 29.77 837 24.72 9.6 49.2 70 4.4 39.9
23:10 1008 29.77 837 24.72 9.5 49.1 67 3.7 38.7
23:15 1008 29.77 837 24.72 9.6 49.3 69 4.3 39.7
23:20 1008 29.77 837 24.72 9.5 49.1 68 4 39.2
23:25 1007 29.74 837 24.72 9.3 48.7 69 4 39.1
23:30 1008 29.77 837 24.72 9 48.2 71 4.1 39.3
23:35 1008 29.77 837 24.72 9.2 48.5 72 4.4 39.9
23:40 1008 29.77 837 24.72 9.2 48.5 70 4 39.2
23:45 1008 29.77 837 24.72 9.2 48.5 72 4.3 39.7
23:50 1008 29.77 837 24.72 9.1 48.4 73 4.6 40.2
23:55 1008 29.77 837 24.72 9.1 48.3 74 4.6 40.3
24:00 1007 29.74 837 24.72 9.1 48.4 74 4.8 40.7